Time;durP1;ratioP1;P1;durP2;ratioP2;P2;SDS_P1;SDS_P2;PMS_P1;PMS_P2;Temp;Humidity;BMP_temperature;BMP_pressure;BME280_temperature;BME280_humidity;BME280_pressure;Samples;Min_cycle;Max_cycle;Signal;HPM_P1;HPM_P2
2023/01/30 00:00:26;;;;;;;17.90;6.97;;;;;;;-144.47;76.01;53187.78;4985088;28;20039;-66
2023/01/30 00:02:51;;;;;;;13.55;6.68;;;;;;;-144.47;75.70;53169.91;4981829;28;20022;-68
2023/01/30 00:05:17;;;;;;;13.43;6.63;;;;;;;-144.47;75.68;53158.00;4986238;28;20100;-67
2023/01/30 00:07:42;;;;;;;16.20;7.15;;;;;;;-144.47;75.63;53205.66;4985520;28;20535;-64
2023/01/30 00:10:08;;;;;;;14.18;6.15;;;;;;;-144.47;75.68;53173.88;4961643;28;20262;-67
2023/01/30 00:12:33;;;;;;;12.40;6.03;;;;;;;-144.47;75.74;53169.91;4991204;28;20034;-66
2023/01/30 00:14:59;;;;;;;14.27;6.30;;;;;;;-144.47;75.61;53181.84;4978173;28;20034;-66
2023/01/30 00:17:24;;;;;;;20.38;6.88;;;;;;;-144.47;75.71;53165.94;4979515;28;20536;-66
2023/01/30 00:19:49;;;;;;;9.63;4.82;;;;;;;-144.47;75.59;53169.91;4987401;28;20513;-67
2023/01/30 00:22:15;;;;;;;18.13;6.57;;;;;;;-144.47;75.46;53177.88;4978418;28;20496;-65
2023/01/30 00:24:40;;;;;;;13.95;6.75;;;;;;;-144.47;75.41;53165.94;4987703;28;20449;-67
2023/01/30 00:27:05;;;;;;;16.05;6.35;;;;;;;-144.47;75.23;53181.84;4986797;28;20416;-69
2023/01/30 00:29:31;;;;;;;13.75;7.00;;;;;;;-144.47;75.34;53185.81;4974641;28;20109;-65
2023/01/30 00:31:56;;;;;;;12.25;6.38;;;;;;;-144.47;75.52;53177.88;4972110;28;20022;-66
2023/01/30 00:34:21;;;;;;;13.23;6.20;;;;;;;-144.47;75.63;53195.75;4988460;28;20491;-67
2023/01/30 00:36:47;;;;;;;15.95;6.97;;;;;;;-144.47;75.76;53183.81;4979846;28;20465;-68
2023/01/30 00:39:12;;;;;;;16.65;6.70;;;;;;;-144.47;76.26;53175.88;4987281;28;20022;-68
2023/01/30 00:47:05;;;;;;;14.60;7.03;;;;;;;-144.47;77.92;53175.88;5005651;28;20510;-64
2023/01/30 00:49:32;;;;;;;19.48;6.70;;;;;;;-144.47;78.30;53201.69;4972895;28;20026;-67
2023/01/30 00:51:57;;;;;;;15.50;7.18;;;;;;;-144.47;78.54;53179.84;4972917;28;20556;-64
2023/01/30 00:54:22;;;;;;;14.40;6.57;;;;;;;-144.47;78.72;53181.84;4991131;28;20088;-66
2023/01/30 00:56:48;;;;;;;15.10;6.72;;;;;;;-144.47;79.01;53187.78;4990773;28;20069;-65
2023/01/30 00:59:13;;;;;;;12.45;6.10;;;;;;;-144.47;79.39;53189.78;4973539;28;20063;-67
2023/01/30 01:01:39;;;;;;;16.27;8.13;;;;;;;-144.47;79.58;53160.00;4973571;28;20058;-66
2023/01/30 01:04:06;;;;;;;16.35;7.05;;;;;;;-144.47;79.69;53181.84;4978938;28;20042;-67
2023/01/30 01:06:31;;;;;;;10.85;6.15;;;;;;;-144.47;80.03;53150.06;4989964;28;20041;-68
2023/01/30 01:08:57;;;;;;;12.95;6.95;;;;;;;-144.47;80.41;53181.84;4995460;28;20029;-63
2023/01/30 01:11:25;;;;;;;14.38;6.68;;;;;;;-144.47;80.84;53160.00;4981468;28;20492;-66
2023/01/30 01:13:55;;;;;;;12.43;6.20;;;;;;;-144.47;81.03;53154.03;4972562;28;20034;-66
2023/01/30 01:16:22;;;;;;;20.17;8.38;;;;;;;-144.47;81.20;53148.06;4970569;28;20059;-66
2023/01/30 01:18:47;;;;;;;14.30;7.25;;;;;;;-144.47;81.32;53161.97;4983510;28;20791;-68
2023/01/30 01:21:13;;;;;;;17.13;7.20;;;;;;;-144.47;81.18;53150.06;4982129;28;20571;-67
2023/01/30 01:23:39;;;;;;;13.55;7.13;;;;;;;-144.47;81.23;53173.88;4985330;28;20040;-66
2023/01/30 01:26:04;;;;;;;13.20;6.80;;;;;;;-144.47;80.85;53169.91;4979235;28;20022;-68
2023/01/30 01:28:30;;;;;;;16.75;7.57;;;;;;;-144.47;80.75;53169.91;4970575;28;20515;-67
2023/01/30 01:30:56;;;;;;;17.23;7.47;;;;;;;-144.47;80.89;53173.88;4963732;28;20476;-63
2023/01/30 01:33:25;;;;;;;17.50;7.95;;;;;;;-144.47;80.75;53156.00;4981210;28;20027;-67
2023/01/30 01:35:54;;;;;;;17.25;7.28;;;;;;;-144.47;80.53;53167.94;4970529;28;20019;-65
2023/01/30 01:38:20;;;;;;;14.85;7.15;;;;;;;-144.47;80.50;53161.97;4983460;28;20097;-66
2023/01/30 01:43:35;;;;;;;12.35;5.85;;;;;;;-144.47;80.86;53171.91;4977808;28;20037;-65
2023/01/30 01:46:12;;;;;;;16.25;6.57;;;;;;;-144.47;81.08;53161.97;4995274;28;20018;-66
2023/01/30 01:48:43;;;;;;;13.55;6.28;;;;;;;-144.47;81.28;53161.97;4988452;28;20034;-66
2023/01/30 01:51:17;;;;;;;15.82;8.48;;;;;;;-144.47;81.21;53165.94;4987132;28;20034;-66
2023/01/30 01:53:47;;;;;;;13.30;7.05;;;;;;;-144.47;81.63;53148.06;4986497;28;20031;-63
2023/01/30 01:56:15;;;;;;;15.32;6.80;;;;;;;-144.47;81.79;53175.88;4974275;28;20030;-61
2023/01/30 01:58:49;;;;;;;14.52;7.25;;;;;;;-144.47;81.75;53169.91;4974155;28;20045;-65
2023/01/30 02:01:15;;;;;;;13.25;6.88;;;;;;;-144.47;81.79;53126.22;4981924;28;20052;-65
2023/01/30 02:03:44;;;;;;;15.55;7.38;;;;;;;-144.47;81.35;53150.06;4978858;28;20457;-65
2023/01/30 02:06:13;;;;;;;16.30;7.43;;;;;;;-144.47;81.28;53156.00;4981473;28;20026;-66
2023/01/30 02:08:54;;;;;;;14.50;7.25;;;;;;;-144.47;81.45;53150.06;4989142;28;20030;-68
2023/01/30 02:11:36;;;;;;;15.30;6.45;;;;;;;-144.47;81.60;53158.00;4993782;28;20026;-65
2023/01/30 02:14:02;;;;;;;13.35;6.18;;;;;;;-144.47;81.53;53161.97;4974335;28;20026;-63
2023/01/30 02:16:27;;;;;;;12.85;6.72;;;;;;;-144.47;81.77;53179.84;4985862;28;20033;-64
2023/01/30 02:18:53;;;;;;;14.80;7.88;;;;;;;-144.47;81.66;53173.88;4974680;28;20035;-69
2023/01/30 02:21:26;;;;;;;11.73;5.95;;;;;;;-144.47;81.75;53171.91;4974132;28;20378;-68
2023/01/30 02:24:03;;;;;;;17.58;7.18;;;;;;;-144.47;82.02;53138.13;4985642;28;20030;-66
2023/01/30 02:26:35;;;;;;;10.63;5.45;;;;;;;-144.47;82.08;53154.03;4973507;28;20026;-66
2023/01/30 02:29:30;;;;;;;21.92;7.15;;;;;;;-144.47;82.37;53112.31;4973536;28;20109;-67
2023/01/30 02:32:14;;;;;;;17.42;8.18;;;;;;;-144.47;82.60;53160.00;4985264;28;20085;-63
2023/01/30 02:34:56;;;;;;;14.57;6.93;;;;;;;-144.47;83.25;53150.06;4979700;28;20031;-66
2023/01/30 02:37:59;;;;;;;11.82;6.13;;;;;;;-144.47;83.37;53156.00;4973374;28;20066;-67
2023/01/30 02:40:30;;;;;;;13.93;6.63;;;;;;;-144.47;83.42;53142.09;4973627;28;20037;-68
2023/01/30 02:43:20;;;;;;;12.70;6.78;;;;;;;-144.47;83.50;53167.94;4990490;28;20026;-67
2023/01/30 02:45:48;;;;;;;14.82;6.95;;;;;;;-144.47;83.49;53136.16;4987612;28;20389;-65
2023/01/30 02:48:26;;;;;;;11.55;5.88;;;;;;;-144.47;83.51;53142.09;4986028;28;20043;-65
2023/01/30 02:51:00;;;;;;;14.20;7.20;;;;;;;-144.47;83.89;53171.91;4986672;28;20066;-65
2023/01/30 02:53:31;;;;;;;12.00;5.97;;;;;;;-144.47;84.08;53173.88;4981154;28;20527;-69
2023/01/30 02:55:57;;;;;;;14.70;7.43;;;;;;;-144.47;84.48;53165.94;4990382;28;20037;-66
2023/01/30 02:58:25;;;;;;;11.93;5.82;;;;;;;-144.47;84.53;53169.91;4983914;28;20026;-69
2023/01/30 03:01:09;;;;;;;14.07;6.25;;;;;;;-144.47;84.51;53171.91;4980026;28;20026;-67
2023/01/30 03:03:50;;;;;;;12.57;6.10;;;;;;;-144.47;84.39;53165.94;4980226;28;20093;-69
2023/01/30 03:06:34;;;;;;;16.67;6.53;;;;;;;-144.47;84.68;53152.03;4956053;28;20047;-67
2023/01/30 03:10:18;;;;;;;;;;;;;;;;;;;;;
2023/01/30 03:13:15;;;;;;;12.32;6.13;;;;;;;-144.47;84.81;53158.00;4988691;28;20056;-90
2023/01/30 03:16:09;;;;;;;13.52;5.40;;;;;;;-144.47;84.98;53126.22;5018015;28;20030;-92
2023/01/30 03:18:40;;;;;;;13.85;5.47;;;;;;;-144.47;84.99;53140.13;5017439;28;20044;-91
2023/01/30 03:21:10;;;;;;;9.65;5.53;;;;;;;-144.47;84.92;53132.19;5017032;28;20034;-89
2023/01/30 03:24:19;;;;;;;;;;;;;;;;;;;;;
2023/01/30 03:27:00;;;;;;;15.82;6.22;;;;;;;-144.47;84.69;53142.09;5018752;28;20029;-90
2023/01/30 03:29:54;;;;;;;13.05;5.63;;;;;;;-144.47;84.77;53108.34;5018042;28;20033;-92
2023/01/30 03:32:25;;;;;;;12.55;5.25;;;;;;;-144.47;84.70;53148.06;5017684;28;20089;-90
2023/01/30 03:34:53;;;;;;;12.55;5.78;;;;;;;-144.47;84.21;53114.31;5018209;28;20026;-90
2023/01/30 03:37:22;;;;;;;13.05;5.45;;;;;;;-144.47;84.08;53110.31;5017200;28;20104;-91
2023/01/30 03:39:54;;;;;;;12.75;5.63;;;;;;;-144.47;83.74;53124.22;5016855;28;20057;-91
2023/01/30 03:42:27;;;;;;;10.02;4.45;;;;;;;-144.47;83.68;53126.22;5017149;28;20041;-91
2023/01/30 03:44:58;;;;;;;16.30;6.05;;;;;;;-144.47;83.79;53118.28;5017162;28;20451;-90
2023/01/30 03:47:29;;;;;;;11.90;5.70;;;;;;;-144.47;83.42;53106.34;5017050;28;20033;-90
2023/01/30 03:50:08;;;;;;;12.18;5.68;;;;;;;-144.47;83.02;53112.31;5017480;28;20029;-91
2023/01/30 03:52:52;;;;;;;;;;;;;;;;;;;;;
2023/01/30 03:55:21;;;;;;;14.65;5.13;;;;;;;-144.47;82.89;53114.31;5018367;28;20363;-89
2023/01/30 03:57:56;;;;;;;12.05;5.63;;;;;;;-144.47;82.87;53126.22;5015693;28;20112;-90
2023/01/30 04:00:30;;;;;;;10.07;5.00;;;;;;;-144.47;82.65;53106.34;5015505;28;20029;-89
2023/01/30 04:03:06;;;;;;;12.27;5.70;;;;;;;-144.47;82.25;53116.28;5015236;28;20026;-91
2023/01/30 04:05:37;;;;;;;12.52;5.35;;;;;;;-144.47;82.47;53110.31;5017467;28;20032;-91
2023/01/30 04:08:10;;;;;;;14.48;5.97;;;;;;;-144.47;82.25;53138.13;5015887;28;20072;-91
2023/01/30 04:10:36;;;;;;;13.10;6.00;;;;;;;-144.47;82.57;53108.34;5017784;28;20037;-91
2023/01/30 04:13:09;;;;;;;13.18;4.75;;;;;;;-144.47;82.53;53110.31;5015121;28;20386;-91
2023/01/30 04:15:37;;;;;;;12.95;6.18;;;;;;;-144.47;82.59;53088.47;5016439;28;20439;-91
2023/01/30 04:18:12;;;;;;;15.68;5.53;;;;;;;-144.47;82.65;53104.38;5018548;28;20113;-90
2023/01/30 04:20:38;;;;;;;15.90;6.35;;;;;;;-144.47;82.62;53102.38;5000882;28;20037;-91
2023/01/30 04:23:09;;;;;;;11.18;5.43;;;;;;;-144.47;82.54;53122.25;5026655;28;20115;-91
2023/01/30 04:25:50;;;;;;;17.33;6.75;;;;;;;-144.47;82.67;53108.34;5029993;28;20024;-91
2023/01/30 04:28:21;;;;;;;13.73;6.05;;;;;;;-144.47;82.87;53098.41;5033887;28;20020;-91
2023/01/30 04:30:53;;;;;;;13.43;6.18;;;;;;;-144.47;82.72;53114.31;5035620;28;20026;-91
2023/01/30 04:33:24;;;;;;;11.30;5.28;;;;;;;-144.47;82.89;53104.38;5035734;28;20037;-90
2023/01/30 04:36:07;;;;;;;;;;;;;;;;;;;;;
2023/01/30 04:38:36;;;;;;;15.35;6.03;;;;;;;-144.47;83.21;53124.22;5050245;28;20458;-92
2023/01/30 04:41:10;;;;;;;17.08;6.90;;;;;;;-144.47;83.56;53102.38;5052549;28;20009;-92
2023/01/30 04:43:44;;;;;;;12.82;5.53;;;;;;;-144.47;83.66;53080.53;5034703;28;20033;-90
2023/01/30 04:46:36;;;;;;;15.50;6.03;;;;;;;-144.47;84.18;53120.25;5035601;28;20037;-93
2023/01/30 04:52:20;;;;;;;13.18;6.47;;;;;;;-144.47;84.32;53106.34;5020417;28;20045;-91
2023/01/30 04:54:48;;;;;;;13.27;6.07;;;;;;;-144.47;83.74;53094.44;5016123;28;20060;-92
2023/01/30 04:57:19;;;;;;;14.90;6.07;;;;;;;-144.47;83.66;53080.53;5037200;28;20094;-91
2023/01/30 05:00:01;;;;;;;13.85;6.72;;;;;;;-144.47;83.51;53084.50;5030401;28;20034;-92
2023/01/30 05:02:33;;;;;;;11.88;5.88;;;;;;;-144.47;83.50;53084.50;5027196;28;20056;-91
2023/01/30 05:05:08;;;;;;;13.73;5.95;;;;;;;-144.47;83.69;53088.47;5023796;28;20080;-91
2023/01/30 05:07:56;;;;;;;15.02;6.70;;;;;;;-144.47;83.89;53084.50;5022369;28;20048;-91
2023/01/30 05:10:28;;;;;;;12.25;5.78;;;;;;;-144.47;83.88;53088.47;5024675;28;20033;-91
2023/01/30 05:13:07;;;;;;;16.50;5.70;;;;;;;-144.47;84.07;53082.53;5023963;28;20120;-90
2023/01/30 05:15:40;;;;;;;10.60;5.28;;;;;;;-144.47;84.11;53078.53;5026206;28;20025;-91
2023/01/30 05:18:29;;;;;;;;;;;;;;;;;;;;;
2023/01/30 05:21:27;;;;;;;16.15;6.05;;;;;;;-144.47;84.21;53086.50;5020485;28;20086;-92
2023/01/30 05:23:59;;;;;;;11.23;5.68;;;;;;;-144.47;84.18;53096.41;5016790;28;20386;-92
2023/01/30 05:26:25;;;;;;;10.32;5.50;;;;;;;-144.47;84.24;53074.56;5016797;28;20060;-91
2023/01/30 05:32:17;;;;;;;13.02;5.55;;;;;;;-144.47;84.10;53098.41;5021389;28;20431;-90
2023/01/30 05:34:57;;;;;;;13.88;6.20;;;;;;;-144.47;83.90;53102.38;5021133;28;20026;-92
2023/01/30 05:37:40;;;;;;;14.95;7.45;;;;;;;-144.47;84.22;53092.44;5017880;28;20105;-90
2023/01/30 05:40:11;;;;;;;19.80;7.05;;;;;;;-144.47;84.51;53066.63;5013901;28;20018;-90
2023/01/30 05:42:40;;;;;;;13.20;7.07;;;;;;;-144.47;84.88;53056.69;5015675;28;20041;-93
2023/01/30 05:45:12;;;;;;;16.50;7.00;;;;;;;-144.47;85.12;53072.59;5019270;28;20029;-91
2023/01/30 05:47:51;;;;;;;17.77;8.20;;;;;;;-144.47;85.22;53050.75;5017301;28;20037;-92
2023/01/30 05:50:17;;;;;;;17.45;7.32;;;;;;;-144.47;85.55;53078.53;4997577;28;20042;-91
2023/01/30 05:56:22;;;;;;;;;;;;;;;;;;;;;
2023/01/30 05:59:27;;;;;;;;;;;;;;;;;;;;;
2023/01/30 06:02:02;;;;;;;16.92;6.95;;;;;;;-144.47;86.49;53092.44;5016440;28;20101;-93
2023/01/30 06:04:50;;;;;;;13.85;6.95;;;;;;;-144.47;86.91;53078.53;5020885;28;20030;-93
2023/01/30 06:07:40;;;;;;;18.50;8.70;;;;;;;-144.47;87.29;53092.44;5016254;28;20113;-91
2023/01/30 06:10:19;;;;;;;15.10;7.05;;;;;;;-144.47;87.49;53098.41;5006242;28;20038;-91
2023/01/30 06:13:12;;;;;;;12.40;6.38;;;;;;;-144.47;87.60;53090.47;5018119;28;20052;-92
2023/01/30 06:18:44;;;;;;;17.00;7.50;;;;;;;-144.47;88.12;53094.44;5016474;28;20026;-90
2023/01/30 06:21:31;;;;;;;12.45;6.22;;;;;;;-144.47;88.71;53082.53;5002406;28;20138;-89
2023/01/30 06:24:03;;;;;;;14.10;6.25;;;;;;;-144.47;88.74;53102.38;4998381;28;20035;-92
2023/01/30 06:26:47;;;;;;;16.02;7.25;;;;;;;-144.47;89.13;53098.41;4997576;28;20031;-90
2023/01/30 06:29:27;;;;;;;13.05;7.00;;;;;;;-144.47;88.88;53082.53;5000484;28;20087;-92
2023/01/30 06:31:56;;;;;;;15.57;6.57;;;;;;;-144.47;88.50;53084.50;5002575;28;20035;-91
2023/01/30 06:34:33;;;;;;;12.32;6.32;;;;;;;-144.47;88.41;53070.59;5004391;28;20084;-91
2023/01/30 06:40:20;;;;;;;14.57;6.65;;;;;;;-144.47;88.03;53082.53;5003097;28;20041;-91
2023/01/30 06:42:53;;;;;;;13.95;6.13;;;;;;;-144.47;87.90;53116.28;5003820;28;20022;-92
2023/01/30 06:45:30;;;;;;;13.45;5.75;;;;;;;-144.47;87.79;53092.44;5003775;28;20046;-91
2023/01/30 06:48:04;;;;;;;11.65;5.60;;;;;;;-144.47;87.54;53072.59;5004379;28;20034;-90
2023/01/30 06:50:33;;;;;;;16.90;5.68;;;;;;;-144.47;87.84;53068.63;5004055;28;20022;-89
2023/01/30 06:53:06;;;;;;;14.57;5.05;;;;;;;-144.47;88.29;53064.66;5004632;28;20082;-92
2023/01/30 06:55:51;;;;;;;;;;;;;;;;;;;;;
2023/01/30 06:58:48;;;;;;;12.95;5.30;;;;;;;-144.47;88.01;53080.53;5002888;28;20417;-91
2023/01/30 07:01:28;;;;;;;16.20;5.10;;;;;;;-144.47;87.83;53092.44;4990421;28;20030;-91
2023/01/30 07:04:03;;;;;;;11.73;5.50;;;;;;;-144.47;87.93;53100.41;5018082;28;20026;-92
2023/01/30 07:06:40;;;;;;;13.88;5.85;;;;;;;-144.47;87.58;53082.53;5003699;28;20064;-91
2023/01/30 07:09:32;;;;;;;8.55;4.50;;;;;;;-144.47;87.45;53076.56;5025809;28;20070;-91
2023/01/30 07:12:04;;;;;;;8.95;4.55;;;;;;;-144.47;87.72;53092.44;5006792;28;20375;-90
2023/01/30 07:14:38;;;;;;;10.40;5.07;;;;;;;-144.47;87.73;53074.56;5019351;28;20117;-92
2023/01/30 07:17:13;;;;;;;14.50;5.10;;;;;;;-144.47;87.79;53078.53;5023023;28;20475;-90
2023/01/30 07:19:56;;;;;;;11.88;5.43;;;;;;;-144.47;88.47;53060.66;5024436;28;20091;-91
2023/01/30 07:22:33;;;;;;;10.25;4.40;;;;;;;-144.47;89.95;53092.44;5020409;28;20037;-92
2023/01/30 07:25:04;;;;;;;8.63;4.45;;;;;;;-144.47;90.55;53092.44;5021799;28;20073;-93
2023/01/30 07:27:43;;;;;;;;;;;;;;;;;;;;;
2023/01/30 07:30:27;;;;;;;10.27;4.70;;;;;;;-144.47;91.03;53094.44;5022852;28;20432;-92
2023/01/30 07:39:26;;;;;;;10.48;4.97;;;;;;;-144.47;90.72;53082.53;5021635;28;20371;-90
2023/01/30 07:42:13;;;;;;;;;;;;;;;;;;;;;
2023/01/30 07:45:05;;;;;;;11.73;5.28;;;;;;;-144.47;90.60;53054.72;5024069;28;20116;-92
2023/01/30 07:48:05;;;;;;;9.35;4.55;;;;;;;-144.47;90.53;53062.66;5005949;28;20038;-92
2023/01/30 07:50:51;;;;;;;;;;;;;;;;;;;;;
2023/01/30 07:53:30;;;;;;;9.50;4.75;;;;;;;-144.47;90.40;53090.47;5029709;28;20181;-92
2023/01/30 07:56:23;;;;;;;;;;;;;;;;;;;;;
2023/01/30 07:59:18;;;;;;;11.45;4.95;;;;;;;-144.47;90.34;53108.34;5026988;28;20036;-91
2023/01/30 08:01:44;;;;;;;11.30;4.22;;;;;;;-144.47;90.45;53070.59;5039264;22;20053;-66
2023/01/30 08:04:09;;;;;;;9.63;4.63;;;;;;;-144.47;90.13;53062.66;5029461;28;20109;-69
2023/01/30 08:06:38;;;;;;;9.65;4.63;;;;;;;-144.47;90.05;53050.75;5029682;28;20037;-67
2023/01/30 08:09:05;;;;;;;9.32;3.78;;;;;;;-144.47;89.45;53090.47;5029857;28;20112;-70
2023/01/30 08:11:30;;;;;;;9.93;4.43;;;;;;;-144.47;89.41;53050.75;5029302;28;20034;-69
2023/01/30 08:13:56;;;;;;;9.98;4.55;;;;;;;-144.47;89.13;53078.53;5029285;28;20021;-71
2023/01/30 08:16:21;;;;;;;13.30;4.65;;;;;;;-144.47;88.86;53068.63;5029170;28;20490;-68
2023/01/30 08:18:46;;;;;;;9.20;4.95;;;;;;;-144.47;89.17;53046.75;5029435;28;20109;-67
2023/01/30 08:21:12;;;;;;;6.90;3.35;;;;;;;-144.47;89.08;53084.50;5029441;28;20489;-69
2023/01/30 08:23:37;;;;;;;10.48;4.22;;;;;;;-144.47;88.93;53056.69;5029049;28;20045;-68
2023/01/30 08:26:03;;;;;;;8.73;4.13;;;;;;;-144.47;88.64;53044.78;5029243;28;20033;-69
2023/01/30 08:28:30;;;;;;;8.48;3.75;;;;;;;-144.47;88.41;53066.63;5029306;28;20025;-69
2023/01/30 08:30:56;;;;;;;9.02;3.92;;;;;;;-144.47;88.12;53015.00;5027196;28;20022;-68
2023/01/30 08:33:22;;;;;;;7.65;4.07;;;;;;;-144.47;88.14;53046.75;5029020;28;20647;-69
2023/01/30 08:35:47;;;;;;;7.05;3.30;;;;;;;-144.47;88.25;53066.63;5029720;28;20036;-68
2023/01/30 08:38:13;;;;;;;6.47;3.58;;;;;;;-144.47;87.87;53044.78;5028523;28;20030;-68
2023/01/30 08:40:38;;;;;;;9.20;3.95;;;;;;;-144.47;87.68;53036.84;5028585;28;20395;-70
2023/01/30 08:43:04;;;;;;;11.82;4.07;;;;;;;-144.47;87.33;53042.78;5028935;28;20388;-66
2023/01/30 08:45:30;;;;;;;6.00;2.97;;;;;;;-144.47;87.33;53070.59;5017514;28;20021;-70
2023/01/30 08:48:00;;;;;;;6.43;2.92;;;;;;;-144.47;87.12;53040.81;5028716;28;20045;-67
2023/01/30 08:50:26;;;;;;;7.22;3.47;;;;;;;-144.47;86.99;53036.84;5028968;28;20032;-67
2023/01/30 08:52:51;;;;;;;9.15;3.63;;;;;;;-144.47;86.97;53042.78;5028922;28;20017;-71
2023/01/30 08:55:17;;;;;;;6.30;3.10;;;;;;;-144.47;86.70;53046.75;5027945;28;20030;-67
2023/01/30 08:57:43;;;;;;;7.03;3.05;;;;;;;-144.47;86.61;53042.78;5027517;28;20040;-71
2023/01/30 09:00:09;;;;;;;6.70;2.78;;;;;;;-144.47;86.34;53064.66;5027916;28;20025;-69
2023/01/30 09:02:34;;;;;;;7.13;3.05;;;;;;;-144.47;86.97;53060.66;5027603;28;20052;-70
2023/01/30 09:05:00;;;;;;;7.05;3.38;;;;;;;-144.47;86.75;53062.66;5027833;28;20017;-70
2023/01/30 09:09:55;;;;;;;7.78;2.83;;;;;;;-144.47;84.86;53028.88;5027204;28;20085;-64
2023/01/30 09:12:21;;;;;;;7.75;3.75;;;;;;;-144.47;84.44;53034.84;5028434;28;20115;-66
2023/01/30 09:14:46;;;;;;;6.38;3.10;;;;;;;-144.47;84.53;53036.84;5028479;28;20022;-66
2023/01/30 09:17:12;;;;;;;5.95;2.28;;;;;;;-144.47;84.38;53066.63;5029853;28;20041;-67
2023/01/30 09:19:38;;;;;;;5.07;2.60;;;;;;;-144.47;84.15;53060.66;5029799;28;20024;-67
2023/01/30 09:22:03;;;;;;;5.85;2.95;;;;;;;-144.47;83.88;53022.94;5029436;28;20066;-65
2023/01/30 09:24:29;;;;;;;4.80;2.17;;;;;;;-144.47;83.47;53032.88;5029616;28;20561;-67
2023/01/30 09:26:57;;;;;;;5.93;2.65;;;;;;;-144.47;83.12;53026.91;5028630;28;20521;-66
2023/01/30 09:29:26;;;;;;;5.15;2.13;;;;;;;-144.47;82.94;53050.75;5028513;28;20585;-65
2023/01/30 09:31:52;;;;;;;10.15;2.47;;;;;;;-144.47;82.27;53015.00;5028748;28;20456;-66
2023/01/30 09:34:18;;;;;;;4.43;1.98;;;;;;;-144.47;82.08;53007.03;5029367;28;20032;-67
2023/01/30 09:36:43;;;;;;;7.03;2.42;;;;;;;-144.47;82.29;53018.97;5018635;28;20018;-66
2023/01/30 09:39:08;;;;;;;9.10;2.50;;;;;;;-144.47;81.63;53026.91;5029551;28;20214;-66
2023/01/30 09:41:52;;;;;;;9.20;2.35;;;;;;;-144.47;81.57;53046.75;5029868;28;20025;-66
2023/01/30 09:44:29;;;;;;;4.97;2.20;;;;;;;-144.47;81.74;53038.81;5030355;28;20105;-65
2023/01/30 09:47:20;;;;;;;8.35;2.08;;;;;;;-144.47;81.86;53036.84;5029698;28;20483;-67
2023/01/30 09:50:19;;;;;;;4.25;1.98;;;;;;;-144.47;82.22;53022.94;5016838;28;20033;-67
2023/01/30 09:53:25;;;;;;;3.85;2.03;;;;;;;-144.47;82.80;53030.88;5029291;28;20017;-63
2023/01/30 09:55:51;;;;;;;4.85;2.30;;;;;;;-144.47;83.48;53015.00;4978807;28;20072;-66
2023/01/30 09:58:19;;;;;;;4.25;2.05;;;;;;;-144.47;83.93;53038.81;5029329;28;20063;-65
2023/01/30 10:00:47;;;;;;;5.00;2.40;;;;;;;-144.47;84.13;53038.81;5029117;28;20022;-67
2023/01/30 10:03:23;;;;;;;4.45;2.03;;;;;;;-144.47;84.46;53068.63;5029418;28;20054;-64
2023/01/30 10:05:57;;;;;;;4.75;2.50;;;;;;;-144.47;84.66;53062.66;5029539;28;20041;-67
2023/01/30 10:08:44;;;;;;;5.30;2.00;;;;;;;-144.47;85.30;53052.72;5030086;28;20037;-66
2023/01/30 10:11:39;;;;;;;5.32;2.42;;;;;;;-144.47;85.44;53011.00;5030364;28;20025;-66
2023/01/30 10:14:20;;;;;;;5.90;2.63;;;;;;;-144.47;85.77;53032.88;5033394;28;20029;-67
2023/01/30 10:17:23;;;;;;;4.80;2.35;;;;;;;-144.47;85.83;53058.69;5032707;28;20033;-66
2023/01/30 10:20:16;;;;;;;5.30;2.45;;;;;;;-144.47;85.35;53036.84;5032412;28;20068;-66
2023/01/30 10:23:10;;;;;;;5.80;2.80;;;;;;;-144.47;85.78;53058.69;5023654;28;20032;-66
2023/01/30 10:25:47;;;;;;;6.90;2.83;;;;;;;-144.47;86.10;53078.53;5033039;28;20407;-66
2023/01/30 10:28:19;;;;;;;5.50;2.17;;;;;;;-144.47;85.83;53046.75;5032771;28;20026;-64
2023/01/30 10:30:51;;;;;;;6.10;2.38;;;;;;;-144.47;86.06;53038.81;5030330;28;20033;-66
2023/01/30 10:33:44;;;;;;;5.07;2.38;;;;;;;-144.47;86.32;53030.88;5033228;28;20390;-67
2023/01/30 10:36:23;;;;;;;6.90;3.10;;;;;;;-144.47;86.46;53052.72;5020988;28;20030;-66
2023/01/30 10:38:51;;;;;;;5.60;2.65;;;;;;;-144.47;86.22;53070.59;5032660;28;20026;-65
2023/01/30 10:41:25;;;;;;;4.20;1.95;;;;;;;-144.47;86.32;53030.88;5030636;28;20026;-66
2023/01/30 10:44:11;;;;;;;7.25;3.15;;;;;;;-144.47;85.88;53042.78;5032651;28;20032;-68
2023/01/30 10:46:51;;;;;;;6.28;3.03;;;;;;;-144.47;86.08;53022.94;5027615;28;20021;-65
2023/01/30 10:49:18;;;;;;;4.13;2.50;;;;;;;-144.47;86.05;53040.81;5028111;28;20159;-67
2023/01/30 10:51:53;;;;;;;5.80;2.80;;;;;;;-144.47;85.84;53052.72;5032998;28;20041;-66
2023/01/30 10:54:21;;;;;;;7.05;3.30;;;;;;;-144.47;85.60;53060.66;5032871;28;20032;-63
2023/01/30 10:56:53;;;;;;;5.28;2.20;;;;;;;-144.47;85.42;53036.84;5031805;28;20029;-66
2023/01/30 10:59:37;;;;;;;4.95;2.63;;;;;;;-144.47;85.30;53034.84;5031949;28;20057;-68
2023/01/30 11:02:20;;;;;;;5.10;2.47;;;;;;;-144.47;85.45;53040.81;5032668;28;20029;-67
2023/01/30 11:04:59;;;;;;;6.28;3.05;;;;;;;-144.47;85.31;53048.75;5032047;28;20041;-64
2023/01/30 11:07:29;;;;;;;5.43;2.50;;;;;;;-144.47;85.40;53038.81;5032301;28;20029;-67
2023/01/30 11:09:56;;;;;;;6.68;2.83;;;;;;;-144.47;85.52;53042.78;5030418;28;20057;-68
2023/01/30 11:12:22;;;;;;;4.70;2.60;;;;;;;-144.47;85.35;53040.81;5031833;28;20056;-66
2023/01/30 11:14:59;;;;;;;5.50;2.17;;;;;;;-144.47;85.35;53018.97;5032068;28;20025;-67
2023/01/30 11:17:29;;;;;;;5.20;2.50;;;;;;;-144.47;84.73;53054.72;5031675;28;20035;-66
2023/01/30 11:19:56;;;;;;;5.30;2.42;;;;;;;-144.47;84.80;53058.69;5031372;28;20371;-66
2023/01/30 11:22:27;;;;;;;5.53;2.70;;;;;;;-144.47;84.60;53052.72;5031967;28;20491;-66
2023/01/30 11:25:01;;;;;;;6.05;2.65;;;;;;;-144.47;84.75;53028.88;5031714;28;20187;-67
2023/01/30 11:27:27;;;;;;;5.57;2.28;;;;;;;-144.47;84.74;53016.97;5031555;28;20083;-66
2023/01/30 11:30:05;;;;;;;4.70;1.80;;;;;;;-144.47;84.63;53040.81;5028859;28;20495;-66
2023/01/30 11:32:31;;;;;;;7.50;2.93;;;;;;;-144.47;84.53;53026.91;5031849;28;20079;-66
2023/01/30 11:35:05;;;;;;;5.03;2.90;;;;;;;-144.47;85.02;53050.75;5030317;28;20445;-65
2023/01/30 11:37:33;;;;;;;6.07;2.80;;;;;;;-144.47;84.84;53026.91;5031221;28;20085;-68
2023/01/30 11:39:58;;;;;;;6.78;2.65;;;;;;;-144.47;84.49;53026.91;5030284;28;20693;-67
2023/01/30 11:42:29;;;;;;;5.15;1.98;;;;;;;-144.47;83.86;53020.94;5031317;28;20104;-66
2023/01/30 11:44:58;;;;;;;5.10;2.30;;;;;;;-144.47;83.55;53038.81;5026484;28;20101;-66
2023/01/30 11:47:28;;;;;;;6.20;2.80;;;;;;;-144.47;83.37;53032.88;5031138;28;20013;-68
2023/01/30 11:49:57;;;;;;;5.20;2.00;;;;;;;-144.47;83.86;53022.94;5031473;28;20025;-69
2023/01/30 11:52:27;;;;;;;6.65;2.60;;;;;;;-144.47;83.54;53024.91;5031573;28;20021;-67
2023/01/30 11:54:59;;;;;;;5.60;2.58;;;;;;;-144.47;83.94;53030.88;5030488;28;20049;-68
2023/01/30 11:57:26;;;;;;;6.43;2.50;;;;;;;-144.47;83.70;53028.88;5030559;28;20129;-68
2023/01/30 11:59:54;;;;;;;5.82;3.03;;;;;;;-144.47;83.62;53032.88;5031966;28;20152;-66
2023/01/30 12:02:24;;;;;;;8.82;3.35;;;;;;;-144.47;82.79;53026.91;5031598;28;20028;-67
2023/01/30 12:04:54;;;;;;;8.15;2.72;;;;;;;-144.47;82.32;53015.00;5030746;28;20021;-68
2023/01/30 12:07:21;;;;;;;6.82;2.92;;;;;;;-144.47;82.29;53020.94;5031009;28;20053;-65
2023/01/30 12:09:49;;;;;;;4.85;2.33;;;;;;;-144.47;82.05;53016.97;5031228;28;20026;-67
2023/01/30 12:12:46;;;;;;;5.75;2.22;;;;;;;-144.47;81.79;52999.09;5031221;28;20527;-67
2023/01/30 12:15:32;;;;;;;8.15;2.92;;;;;;;-144.47;81.78;53020.94;5030430;28;20041;-66
2023/01/30 12:18:00;;;;;;;4.88;1.83;;;;;;;-144.47;81.88;53030.88;5030883;28;20030;-68
2023/01/30 12:20:40;;;;;;;6.97;2.40;;;;;;;-144.47;82.87;53024.91;5031707;28;20033;-68
2023/01/30 12:23:17;;;;;;;5.03;2.13;;;;;;;-144.47;83.21;53011.00;5031440;28;20528;-69
2023/01/30 12:26:24;;;;;;;6.30;1.85;;;;;;;-144.47;83.31;53013.00;5031394;28;20033;-65
2023/01/30 12:28:55;;;;;;;8.30;2.05;;;;;;;-144.47;83.21;53036.84;5031477;28;20629;-67
2023/01/30 12:31:39;;;;;;;5.25;1.80;;;;;;;-144.47;82.90;53011.00;5030038;28;20471;-70
2023/01/30 12:34:08;;;;;;;8.02;2.40;;;;;;;-144.47;82.18;52997.09;5031033;28;20103;-68